Airport View

Enter AWOS ICAO identifier for current METAR.

ex. KFNL

KNHK 212252Z AUTO 15006KT 10SM CLR 25/20 A3017 RMK AO2 SLP215 T02500200

21 Sep 2019 23:24

Other Area AWOS: K2W6 - KNUI - KCGE - KTGI

TAF KNHK 2115/2215 28005KT 9999 FEW250 QNH3020INS FM211900 14006KT 9999 FEW250 QNH3017INS FM220200 20003KT 9999 FEW015 FEW250 QNH3018INS FM221500 20005KT 9999 FEW250 QNH3018INS T26/2119Z T19/2209Z FN00204